Response — WDA9597 — position and weather

sailwx.info

Track history (hours):
 
Tides and Currents Weather Stations Pressure Air Temp Water Temp Dewpoint Dewpoint Depression Visibility Wind Speed Wind Dir Waves Ship Positions

Response

Owner: VESSEL MANAGEMENT SERVICES INC, SEATTLE, WA. More information available from US FCC via Universal Licensing System and Coast Guard Vessel Documentation Center.

Last reported at 2018-Jun-19 08:48 UTC. Time now 2018-Jun-19 14:17 UTC.
Position N 48°46' W 122°43'.

Length 40 m; draft 6.1 m.

Type: Tug. MMSI: 366866930.

Date/timePositionNaut miles runAvg speedWind from/ knotsBaromVisibWave heightAir tempDewpointWater temp
2018-Jun-19 08:48N 48°46' W 122°43'2 1.4
2018-Jun-19 07:01N 48°48' W 122°44'0 4.3
2018-Jun-19 07:00N 48°48' W 122°44'1 0.3
2018-Jun-19 04:41N 48°48' W 122°43'0 0.0
2018-Jun-19 04:26N 48°48' W 122°43'0 0.0
2018-Jun-19 03:51N 48°48' W 122°43'6 1.1
2018-Jun-18 22:29N 48°42' W 122°43'4 9.0
2018-Jun-18 22:01N 48°39' W 122°39'4 8.8
2018-Jun-18 21:31N 48°35' W 122°36'3 6.5
2018-Jun-18 21:00N 48°31' W 122°36'1 1.3
2018-Jun-18 20:31N 48°31' W 122°37'0 0.0
2018-Jun-18 20:00N 48°31' W 122°37'0 0.0
2018-Jun-18 19:31N 48°31' W 122°37'0 0.0
2018-Jun-18 19:01N 48°31' W 122°37'0 0.0
2018-Jun-18 18:31N 48°31' W 122°37'0 0.0
2018-Jun-18 18:01N 48°31' W 122°37'0 0.0
2018-Jun-18 17:30N 48°31' W 122°37'0 0.0
2018-Jun-18 16:59N 48°31' W 122°37'0 0.0
2018-Jun-18 16:28N 48°31' W 122°37'0 0.0
2018-Jun-18 16:00N 48°31' W 122°37'0 0.0
2018-Jun-18 15:31N 48°31' W 122°37'0 0.0
2018-Jun-18 15:01N 48°31' W 122°37'0 0.0
2018-Jun-18 14:31N 48°31' W 122°37'0 0.0
2018-Jun-18 13:59N 48°31' W 122°37'0 0.0
2018-Jun-18 13:31N 48°31' W 122°37'1 2.3
2018-Jun-18 13:01N 48°31' W 122°35'1 1.9
2018-Jun-18 12:31N 48°31' W 122°34'1 1.5
2018-Jun-18 12:01N 48°31' W 122°35'2 4.9
2018-Jun-18 11:30N 48°31' W 122°39'1 2.4
2018-Jun-18 11:01N 48°31' W 122°37'0 0.0
2018-Jun-18 10:31N 48°31' W 122°37'0 0.0
2018-Jun-18 09:59N 48°31' W 122°37'0 0.0
2018-Jun-18 09:30N 48°31' W 122°37'0 0.0
2018-Jun-18 09:01N 48°31' W 122°37'0 0.0
2018-Jun-18 08:31N 48°31' W 122°37'0 0.0
2018-Jun-18 08:01N 48°31' W 122°37'0 0.0
2018-Jun-18 07:30N 48°31' W 122°37'0 0.0
2018-Jun-18 07:00N 48°31' W 122°37'1 2.2
2018-Jun-18 06:30N 48°31' W 122°35'1 1.2
2018-Jun-18 06:01N 48°31' W 122°35'0 0.3
2018-Jun-18 05:31N 48°31' W 122°35'4 7.6
2018-Jun-18 05:01N 48°31' W 122°40'712.5
2018-Jun-18 04:27N 48°25' W 122°46'613.7
2018-Jun-18 04:00N 48°21' W 122°54'6 5.8
2018-Jun-18 02:57N 48°19' W 123°02'511.4
2018-Jun-18 02:29N 48°22' W 122°55'510.7
2018-Jun-18 02:00N 48°24' W 122°49'3 6.8
2018-Jun-18 01:30N 48°27' W 122°46'4 7.8
2018-Jun-18 01:00N 48°31' W 122°45'4 7.5
2018-Jun-18 00:30N 48°35' W 122°45'4 7.9
2018-Jun-18 00:00N 48°39' W 122°44'5 9.7
2018-Jun-17 23:30N 48°43' W 122°45'8 9.0
2018-Jun-17 22:36N 48°52' W 122°46'0 1.0
2018-Jun-17 22:15N 48°52' W 122°46'4 1.4
2018-Jun-17 19:20N 48°48' W 122°43'0 0.1
2018-Jun-17 18:47N 48°48' W 122°43'1 0.1
2018-Jun-17 06:09N 48°49' W 122°43'1 0.7
2018-Jun-17 05:00N 48°48' W 122°44'6 6.6
2018-Jun-17 04:10N 48°43' W 122°44'1 6.9
2018-Jun-17 04:00N 48°43' W 122°42'0 0.1
2018-Jun-17 03:28N 48°43' W 122°42'0 0.0
2018-Jun-17 02:58N 48°43' W 122°42'1 0.1
2018-Jun-16 17:43N 48°42' W 122°42'0 1.9
2018-Jun-16 17:29N 48°42' W 122°43'10 0.6
2018-Jun-16 00:36N 48°52' W 122°46'10 2.1
2018-Jun-15 19:48N 48°42' W 122°43'2 7.4
2018-Jun-15 19:30N 48°40' W 122°41'3 6.7
2018-Jun-15 19:00N 48°37' W 122°38'3 5.7
2018-Jun-15 18:30N 48°36' W 122°34'1 2.2
2018-Jun-15 17:59N 48°37' W 122°35'4 7.2
2018-Jun-15 17:30N 48°39' W 122°40'4 7.3
2018-Jun-15 17:00N 48°37' W 122°45'3 6.0
2018-Jun-15 16:30N 48°34' W 122°45'3 6.9
2018-Jun-15 16:00N 48°31' W 122°45'4 7.3
2018-Jun-15 15:30N 48°27' W 122°45'4 8.5
2018-Jun-15 14:59N 48°24' W 122°49'8 0.7
2018-Jun-15 03:21N 48°20' W 123°00'412.5
2018-Jun-15 03:00N 48°22' W 122°55'712.3
2018-Jun-15 02:27N 48°26' W 122°46'410.1
2018-Jun-15 02:00N 48°31' W 122°44'5 9.6
2018-Jun-15 01:30N 48°35' W 122°45'4 8.9
2018-Jun-15 01:00N 48°40' W 122°43'5 9.1
2018-Jun-15 00:26N 48°44' W 122°46'2 0.9
2018-Jun-14 21:38N 48°43' W 122°43'111.0
2018-Jun-14 21:30N 48°41' W 122°42'5 9.5
2018-Jun-14 21:00N 48°38' W 122°38'4 8.9
2018-Jun-14 20:30N 48°34' W 122°35'3 5.5
2018-Jun-14 20:00N 48°31' W 122°37'0 0.0
2018-Jun-14 19:29N 48°31' W 122°37'0 0.0
2018-Jun-14 19:00N 48°31' W 122°37'0 0.0
2018-Jun-14 18:29N 48°31' W 122°37'0 0.0
2018-Jun-14 18:00N 48°31' W 122°37'0 0.0
2018-Jun-14 17:30N 48°31' W 122°37'0 0.0
2018-Jun-14 17:00N 48°31' W 122°37'0 0.0
2018-Jun-14 16:30N 48°31' W 122°37'0 0.0
2018-Jun-14 16:00N 48°31' W 122°37'0 0.0
2018-Jun-14 15:30N 48°31' W 122°37'0 0.0
2018-Jun-14 15:00N 48°31' W 122°37'0 0.0
2018-Jun-14 14:30N 48°31' W 122°37'0 0.0
2018-Jun-14 14:00N 48°31' W 122°37'0 0.0
2018-Jun-14 13:29N 48°31' W 122°37'0 0.0
2018-Jun-14 13:00N 48°31' W 122°37'0 0.0
2018-Jun-14 12:30N 48°31' W 122°37'0 0.0
2018-Jun-14 12:00N 48°31' W 122°37'0 0.0
2018-Jun-14 11:30N 48°31' W 122°37'0 0.0
2018-Jun-14 10:58N 48°31' W 122°37'0 0.0
2018-Jun-14 10:30N 48°31' W 122°37'0 0.0
2018-Jun-14 10:00N 48°31' W 122°37'0 0.0
2018-Jun-14 09:30N 48°31' W 122°37'0 0.0
2018-Jun-14 09:00N 48°31' W 122°37'0 0.0
2018-Jun-14 08:30N 48°31' W 122°37'0 0.0
2018-Jun-14 08:00N 48°31' W 122°37'0 0.0
2018-Jun-14 07:30N 48°31' W 122°37'0 0.0
2018-Jun-14 07:00N 48°31' W 122°37'0 0.0
2018-Jun-14 06:30N 48°31' W 122°37'0 0.0
2018-Jun-14 06:00N 48°31' W 122°37'0 0.0
2018-Jun-14 05:29N 48°31' W 122°37'0 0.0
2018-Jun-14 05:00N 48°31' W 122°37'0 0.0
2018-Jun-14 04:29N 48°31' W 122°37'0 0.0
2018-Jun-14 04:00N 48°31' W 122°37'0 0.0
2018-Jun-14 03:30N 48°31' W 122°37'0 0.0
2018-Jun-14 03:00N 48°31' W 122°37'0 0.0
2018-Jun-14 02:28N 48°31' W 122°37'0 0.0
2018-Jun-14 02:00N 48°31' W 122°37'0 0.0
2018-Jun-14 01:30N 48°31' W 122°37'0 0.0
2018-Jun-14 01:00N 48°31' W 122°37'0 0.0
2018-Jun-14 00:30N 48°31' W 122°37'0 0.0
2018-Jun-14 00:00N 48°31' W 122°37'0 0.0
2018-Jun-13 23:30N 48°31' W 122°37'0 0.0
2018-Jun-13 23:00N 48°31' W 122°37'0 0.0
2018-Jun-13 22:30N 48°31' W 122°37'2 3.0
2018-Jun-13 22:00N 48°31' W 122°35'5 9.1
2018-Jun-13 21:30N 48°36' W 122°37'510.7
2018-Jun-13 21:00N 48°40' W 122°41'5 9.6
2018-Jun-13 20:29N 48°45' W 122°44'2 0.8
2018-Jun-13 17:49N 48°47' W 122°45'5 8.2
2018-Jun-13 17:09N 48°42' W 122°43'1 8.0
2018-Jun-13 17:00N 48°41' W 122°42'4 7.8
2018-Jun-13 16:30N 48°38' W 122°39'5 9.5
2018-Jun-13 16:00N 48°34' W 122°35'3 5.5
2018-Jun-13 15:30N 48°31' W 122°34'0 0.7
2018-Jun-13 15:00N 48°31' W 122°34'1 2.9
2018-Jun-13 14:30N 48°31' W 122°36'1 1.3
2018-Jun-13 14:00N 48°31' W 122°37'0 0.0
2018-Jun-13 13:30N 48°31' W 122°37'0 0.0
2018-Jun-13 13:00N 48°31' W 122°37'0 0.0
2018-Jun-13 12:30N 48°31' W 122°37'0 0.0
2018-Jun-13 12:00N 48°31' W 122°37'0 0.0
2018-Jun-13 11:30N 48°31' W 122°37'0 0.0
2018-Jun-13 11:00N 48°31' W 122°37'0 0.0
2018-Jun-13 10:28N 48°31' W 122°37'0 0.0
2018-Jun-13 10:00N 48°31' W 122°37'0 0.0
2018-Jun-13 09:30N 48°31' W 122°37'0 0.0
2018-Jun-13 09:00N 48°31' W 122°37'0 0.0
2018-Jun-13 08:30N 48°31' W 122°37'0 0.0
2018-Jun-13 08:00N 48°31' W 122°37'0 0.0
2018-Jun-13 07:30N 48°31' W 122°37'0 0.0
2018-Jun-13 07:00N 48°31' W 122°37'0 0.0
2018-Jun-13 06:30N 48°31' W 122°37'0 0.0
2018-Jun-13 06:00N 48°31' W 122°37'0 0.0
2018-Jun-13 05:30N 48°31' W 122°37'0 0.0
2018-Jun-13 05:00N 48°31' W 122°37'0 0.0
2018-Jun-13 04:30N 48°31' W 122°37'0 0.0
2018-Jun-13 04:00N 48°31' W 122°37'0 0.6
2018-Jun-13 03:30N 48°31' W 122°36'1 2.8
2018-Jun-13 03:00N 48°31' W 122°35'0 0.1
2018-Jun-13 02:30N 48°31' W 122°35'0 0.6
2018-Jun-13 02:00N 48°31' W 122°34'1 2.4
2018-Jun-13 01:30N 48°31' W 122°36'1 1.3
2018-Jun-13 01:00N 48°31' W 122°37'0 0.0
2018-Jun-13 00:28N 48°31' W 122°37'0 0.0
2018-Jun-13 00:00N 48°31' W 122°37'0 0.0
2018-Jun-12 23:28N 48°31' W 122°37'0 0.0
2018-Jun-12 23:00N 48°31' W 122°37'0 0.0
2018-Jun-12 22:26N 48°31' W 122°37'0 0.0
2018-Jun-12 22:00N 48°31' W 122°37'0 0.0
2018-Jun-12 21:30N 48°31' W 122°37'0 0.0
2018-Jun-12 21:00N 48°31' W 122°37'0 0.1
2018-Jun-12 20:29N 48°31' W 122°37'0 0.0
2018-Jun-12 20:00N 48°31' W 122°37'1 1.3
2018-Jun-12 19:30N 48°31' W 122°36'1 2.1
2018-Jun-12 19:00N 48°31' W 122°35'0 0.9
2018-Jun-12 18:30N 48°31' W 122°35'1 2.4
2018-Jun-12 18:00N 48°31' W 122°37'0 0.0
2018-Jun-12 17:30N 48°31' W 122°37'0 0.0
2018-Jun-12 17:00N 48°31' W 122°37'0 0.0
2018-Jun-12 16:30N 48°31' W 122°37'0 0.0
2018-Jun-12 16:00N 48°31' W 122°37'0 0.0
2018-Jun-12 15:30N 48°31' W 122°37'0 0.0
2018-Jun-12 15:00N 48°31' W 122°37'0 0.0
2018-Jun-12 14:28N 48°31' W 122°37'0 0.0
2018-Jun-12 13:59N 48°31' W 122°37'0 0.0
2018-Jun-12 13:30N 48°31' W 122°37'0 0.0
2018-Jun-12 13:00N 48°31' W 122°37'0 0.0
2018-Jun-12 12:30N 48°31' W 122°37'0 0.0
2018-Jun-12 12:00N 48°31' W 122°37'0 0.0
2018-Jun-12 11:30N 48°31' W 122°37'0 0.0
2018-Jun-12 11:00N 48°31' W 122°37'0 0.0
2018-Jun-12 10:30N 48°31' W 122°37'0 0.0
2018-Jun-12 10:00N 48°31' W 122°37'0 0.0
2018-Jun-12 09:30N 48°31' W 122°37'0 0.0
2018-Jun-12 09:00N 48°31' W 122°37'0 0.0
2018-Jun-12 08:30N 48°31' W 122°37'0 0.0
2018-Jun-12 08:00N 48°31' W 122°37'0 0.0
2018-Jun-12 07:30N 48°31' W 122°37'0 0.0
2018-Jun-12 07:00N 48°31' W 122°37'0 0.0
2018-Jun-12 06:30N 48°31' W 122°37'0 0.0
2018-Jun-12 06:00N 48°31' W 122°37'0 0.0
2018-Jun-12 05:30N 48°31' W 122°37'0 0.0
2018-Jun-12 04:57N 48°31' W 122°37'0 0.0
2018-Jun-12 04:30N 48°31' W 122°37'0 0.5
2018-Jun-12 04:00N 48°31' W 122°36'2 3.4
2018-Jun-12 03:30N 48°31' W 122°34'0 0.2
2018-Jun-12 03:00N 48°31' W 122°34'1 1.1
2018-Jun-12 02:30N 48°31' W 122°34'0 1.0
2018-Jun-12 02:00N 48°31' W 122°33'2 4.4
2018-Jun-12 01:30N 48°31' W 122°37'0 0.0
2018-Jun-12 01:00N 48°31' W 122°37'0 0.0
2018-Jun-12 00:30N 48°31' W 122°37'0 0.0
2018-Jun-12 00:00N 48°31' W 122°37'0 0.0
2018-Jun-11 23:30N 48°31' W 122°37'0 0.0
2018-Jun-11 23:00N 48°31' W 122°37'0 0.0
2018-Jun-11 22:30N 48°31' W 122°37'0 0.0
2018-Jun-11 22:00N 48°31' W 122°37'0 0.0
2018-Jun-11 21:30N 48°31' W 122°37'0 0.0
2018-Jun-11 21:00N 48°31' W 122°37'0 0.0
2018-Jun-11 20:30N 48°31' W 122°37'0 0.0
2018-Jun-11 20:00N 48°31' W 122°37'0 0.0
2018-Jun-11 19:30N 48°31' W 122°37'0 0.0
2018-Jun-11 18:58N 48°31' W 122°37'0 0.0
2018-Jun-11 18:30N 48°31' W 122°37'0 0.0
2018-Jun-11 18:00N 48°31' W 122°37'0 0.0
2018-Jun-11 17:30N 48°31' W 122°37'0 0.0
2018-Jun-11 17:00N 48°31' W 122°37'0 0.0
2018-Jun-11 16:30N 48°31' W 122°37'0 0.0
2018-Jun-11 16:00N 48°31' W 122°37'0 0.0
2018-Jun-11 15:30N 48°31' W 122°37'0 0.0
2018-Jun-11 15:00N 48°31' W 122°37'0 0.0
2018-Jun-11 14:30N 48°31' W 122°37'0 0.0
2018-Jun-11 14:00N 48°31' W 122°37'1 2.2
2018-Jun-11 13:30N 48°31' W 122°35'1 1.3
2018-Jun-11 13:00N 48°31' W 122°35'0 0.8
2018-Jun-11 12:30N 48°31' W 122°35'1 2.4
2018-Jun-11 12:00N 48°31' W 122°37'0 0.0
2018-Jun-11 11:30N 48°31' W 122°37'0 0.0
2018-Jun-11 11:00N 48°31' W 122°37'0 0.0
2018-Jun-11 10:30N 48°31' W 122°37'0 0.0
2018-Jun-11 10:00N 48°31' W 122°37'0 0.0
2018-Jun-11 09:30N 48°31' W 122°37'0 0.0
2018-Jun-11 09:00N 48°31' W 122°37'0 0.0
2018-Jun-11 08:30N 48°31' W 122°37'0 0.0
2018-Jun-11 08:00N 48°31' W 122°37'0 0.0
2018-Jun-11 07:30N 48°31' W 122°37'0 0.0
2018-Jun-11 07:00N 48°31' W 122°37'0 0.0
2018-Jun-11 06:30N 48°31' W 122°37'0 0.0
2018-Jun-11 06:00N 48°31' W 122°37'0 0.0
2018-Jun-11 05:30N 48°31' W 122°37'0 0.0
2018-Jun-11 05:00N 48°31' W 122°37'0 0.0
2018-Jun-11 04:30N 48°31' W 122°37'0 0.0
2018-Jun-11 04:00N 48°31' W 122°37'0 0.0
2018-Jun-11 03:30N 48°31' W 122°37'0 0.0
2018-Jun-11 03:00N 48°31' W 122°37'0 0.0
2018-Jun-11 02:30N 48°31' W 122°37'0 0.0
2018-Jun-11 01:59N 48°31' W 122°37'0 0.0
2018-Jun-11 01:30N 48°31' W 122°37'0 0.0
2018-Jun-11 01:00N 48°31' W 122°37'0 0.0
2018-Jun-11 00:30N 48°31' W 122°37'0 0.0
2018-Jun-11 00:00N 48°31' W 122°37'0 0.0
2018-Jun-10 23:30N 48°31' W 122°37'2 3.2
2018-Jun-10 23:00N 48°31' W 122°35'0 0.0
2018-Jun-10 22:30N 48°31' W 122°35'0 0.3
2018-Jun-10 22:00N 48°31' W 122°35'2 3.2
2018-Jun-10 21:30N 48°32' W 122°34'1 1.1
2018-Jun-10 20:58N 48°33' W 122°34'2 4.9
2018-Jun-10 20:30N 48°31' W 122°37'0 0.0
2018-Jun-10 19:59N 48°31' W 122°37'0 0.0
2018-Jun-10 19:30N 48°31' W 122°37'0 0.0
2018-Jun-10 19:00N 48°31' W 122°37'0 0.0
2018-Jun-10 18:30N 48°31' W 122°37'0 0.0
2018-Jun-10 18:00N 48°31' W 122°37'0 0.0
2018-Jun-10 17:29N 48°31' W 122°37'0 0.0
2018-Jun-10 17:00N 48°31' W 122°37'0 0.0
2018-Jun-10 16:30N 48°31' W 122°37'0 0.0
2018-Jun-10 16:00N 48°31' W 122°37'0 0.0
2018-Jun-10 15:30N 48°31' W 122°37'0 0.0
2018-Jun-10 15:00N 48°31' W 122°37'0 0.0
2018-Jun-10 14:30N 48°31' W 122°37'2 1.5
2018-Jun-10 13:30N 48°31' W 122°35'0 0.6
2018-Jun-10 13:00N 48°31' W 122°35'2 3.1
2018-Jun-10 12:30N 48°32' W 122°34'1 1.2
2018-Jun-10 12:00N 48°31' W 122°34'0 0.6
2018-Jun-10 11:30N 48°31' W 122°34'2 3.2
2018-Jun-10 11:00N 48°31' W 122°36'4 7.9
2018-Jun-10 10:30N 48°31' W 122°42'5 9.1
2018-Jun-10 09:59N 48°26' W 122°45'5 9.8
2018-Jun-10 09:30N 48°23' W 122°50'29 1.5
2018-Jun-09 14:45N 48°08' W 123°27'0 0.0
2018-Jun-09 14:28N 48°08' W 123°27'0 0.0
2018-Jun-09 14:00N 48°08' W 123°27'0 0.0
2018-Jun-09 13:30N 48°08' W 123°27'0 0.0
2018-Jun-09 13:00N 48°08' W 123°27'0 0.0
2018-Jun-09 12:28N 48°08' W 123°27'0 0.0
2018-Jun-09 12:00N 48°08' W 123°27'0 0.0
2018-Jun-09 11:30N 48°08' W 123°27'0 0.0
2018-Jun-09 11:00N 48°08' W 123°27'0 0.0
2018-Jun-09 10:30N 48°08' W 123°27'0 0.0
2018-Jun-09 10:00N 48°08' W 123°27'0 0.4
2018-Jun-09 09:30N 48°08' W 123°26'1 1.3
2018-Jun-09 09:01N 48°08' W 123°25'  
Track history (hours):
 
Tides and Currents Weather Stations Pressure Air Temp Water Temp Dewpoint Dewpoint Depression Visibility Wind Speed Wind Dir Waves Ship Positions

Response

Owner: VESSEL MANAGEMENT SERVICES INC, SEATTLE, WA. More information available from US FCC via Universal Licensing System and Coast Guard Vessel Documentation Center.

Last reported at 2018-Jun-19 08:48 UTC. Time now 2018-Jun-19 14:17 UTC.
Position N 48°46' W 122°43'.

Length 40 m; draft 6.1 m.

Type: Tug. MMSI: 366866930.

Date/timePositionNaut miles runAvg speedWind from/ knotsBaromVisibWave heightAir tempDewpointWater temp
2018-Jun-19 08:48N 48°46' W 122°43'2 1.4
2018-Jun-19 07:01N 48°48' W 122°44'0 4.3
2018-Jun-19 07:00N 48°48' W 122°44'1 0.3
2018-Jun-19 04:41N 48°48' W 122°43'0 0.0
2018-Jun-19 04:26N 48°48' W 122°43'0 0.0
2018-Jun-19 03:51N 48°48' W 122°43'6 1.1
2018-Jun-18 22:29N 48°42' W 122°43'4 9.0
2018-Jun-18 22:01N 48°39' W 122°39'4 8.8
2018-Jun-18 21:31N 48°35' W 122°36'3 6.5
2018-Jun-18 21:00N 48°31' W 122°36'1 1.3
2018-Jun-18 20:31N 48°31' W 122°37'0 0.0
2018-Jun-18 20:00N 48°31' W 122°37'0 0.0
2018-Jun-18 19:31N 48°31' W 122°37'0 0.0
2018-Jun-18 19:01N 48°31' W 122°37'0 0.0
2018-Jun-18 18:31N 48°31' W 122°37'0 0.0
2018-Jun-18 18:01N 48°31' W 122°37'0 0.0
2018-Jun-18 17:30N 48°31' W 122°37'0 0.0
2018-Jun-18 16:59N 48°31' W 122°37'0 0.0
2018-Jun-18 16:28N 48°31' W 122°37'0 0.0
2018-Jun-18 16:00N 48°31' W 122°37'0 0.0
2018-Jun-18 15:31N 48°31' W 122°37'0 0.0
2018-Jun-18 15:01N 48°31' W 122°37'0 0.0
2018-Jun-18 14:31N 48°31' W 122°37'0 0.0
2018-Jun-18 13:59N 48°31' W 122°37'0 0.0
2018-Jun-18 13:31N 48°31' W 122°37'1 2.3
2018-Jun-18 13:01N 48°31' W 122°35'1 1.9
2018-Jun-18 12:31N 48°31' W 122°34'1 1.5
2018-Jun-18 12:01N 48°31' W 122°35'2 4.9
2018-Jun-18 11:30N 48°31' W 122°39'1 2.4
2018-Jun-18 11:01N 48°31' W 122°37'0 0.0
2018-Jun-18 10:31N 48°31' W 122°37'0 0.0
2018-Jun-18 09:59N 48°31' W 122°37'0 0.0
2018-Jun-18 09:30N 48°31' W 122°37'0 0.0
2018-Jun-18 09:01N 48°31' W 122°37'0 0.0
2018-Jun-18 08:31N 48°31' W 122°37'0 0.0
2018-Jun-18 08:01N 48°31' W 122°37'0 0.0
2018-Jun-18 07:30N 48°31' W 122°37'0 0.0
2018-Jun-18 07:00N 48°31' W 122°37'1 2.2
2018-Jun-18 06:30N 48°31' W 122°35'1 1.2
2018-Jun-18 06:01N 48°31' W 122°35'0 0.3
2018-Jun-18 05:31N 48°31' W 122°35'4 7.6
2018-Jun-18 05:01N 48°31' W 122°40'712.5
2018-Jun-18 04:27N 48°25' W 122°46'613.7
2018-Jun-18 04:00N 48°21' W 122°54'6 5.8
2018-Jun-18 02:57N 48°19' W 123°02'511.4
2018-Jun-18 02:29N 48°22' W 122°55'510.7
2018-Jun-18 02:00N 48°24' W 122°49'3 6.8
2018-Jun-18 01:30N 48°27' W 122°46'4 7.8
2018-Jun-18 01:00N 48°31' W 122°45'4 7.5
2018-Jun-18 00:30N 48°35' W 122°45'4 7.9
2018-Jun-18 00:00N 48°39' W 122°44'5 9.7
2018-Jun-17 23:30N 48°43' W 122°45'8 9.0
2018-Jun-17 22:36N 48°52' W 122°46'0 1.0
2018-Jun-17 22:15N 48°52' W 122°46'4 1.4
2018-Jun-17 19:20N 48°48' W 122°43'0 0.1
2018-Jun-17 18:47N 48°48' W 122°43'1 0.1
2018-Jun-17 06:09N 48°49' W 122°43'1 0.7
2018-Jun-17 05:00N 48°48' W 122°44'6 6.6
2018-Jun-17 04:10N 48°43' W 122°44'1 6.9
2018-Jun-17 04:00N 48°43' W 122°42'0 0.1
2018-Jun-17 03:28N 48°43' W 122°42'0 0.0
2018-Jun-17 02:58N 48°43' W 122°42'1 0.1
2018-Jun-16 17:43N 48°42' W 122°42'0 1.9
2018-Jun-16 17:29N 48°42' W 122°43'10 0.6
2018-Jun-16 00:36N 48°52' W 122°46'10 2.1
2018-Jun-15 19:48N 48°42' W 122°43'2 7.4
2018-Jun-15 19:30N 48°40' W 122°41'3 6.7
2018-Jun-15 19:00N 48°37' W 122°38'3 5.7
2018-Jun-15 18:30N 48°36' W 122°34'1 2.2
2018-Jun-15 17:59N 48°37' W 122°35'4 7.2
2018-Jun-15 17:30N 48°39' W 122°40'4 7.3
2018-Jun-15 17:00N 48°37' W 122°45'3 6.0
2018-Jun-15 16:30N 48°34' W 122°45'3 6.9
2018-Jun-15 16:00N 48°31' W 122°45'4 7.3
2018-Jun-15 15:30N 48°27' W 122°45'4 8.5
2018-Jun-15 14:59N 48°24' W 122°49'8 0.7
2018-Jun-15 03:21N 48°20' W 123°00'412.5
2018-Jun-15 03:00N 48°22' W 122°55'712.3
2018-Jun-15 02:27N 48°26' W 122°46'410.1
2018-Jun-15 02:00N 48°31' W 122°44'5 9.6
2018-Jun-15 01:30N 48°35' W 122°45'4 8.9
2018-Jun-15 01:00N 48°40' W 122°43'5 9.1
2018-Jun-15 00:26N 48°44' W 122°46'2 0.9
2018-Jun-14 21:38N 48°43' W 122°43'111.0
2018-Jun-14 21:30N 48°41' W 122°42'5 9.5
2018-Jun-14 21:00N 48°38' W 122°38'4 8.9
2018-Jun-14 20:30N 48°34' W 122°35'3 5.5
2018-Jun-14 20:00N 48°31' W 122°37'0 0.0
2018-Jun-14 19:29N 48°31' W 122°37'0 0.0
2018-Jun-14 19:00N 48°31' W 122°37'0 0.0
2018-Jun-14 18:29N 48°31' W 122°37'0 0.0
2018-Jun-14 18:00N 48°31' W 122°37'0 0.0
2018-Jun-14 17:30N 48°31' W 122°37'0 0.0
2018-Jun-14 17:00N 48°31' W 122°37'0 0.0
2018-Jun-14 16:30N 48°31' W 122°37'0 0.0
2018-Jun-14 16:00N 48°31' W 122°37'0 0.0
2018-Jun-14 15:30N 48°31' W 122°37'0 0.0
2018-Jun-14 15:00N 48°31' W 122°37'0 0.0
2018-Jun-14 14:30N 48°31' W 122°37'0 0.0
2018-Jun-14 14:00N 48°31' W 122°37'0 0.0
2018-Jun-14 13:29N 48°31' W 122°37'0 0.0
2018-Jun-14 13:00N 48°31' W 122°37'0 0.0
2018-Jun-14 12:30N 48°31' W 122°37'0 0.0
2018-Jun-14 12:00N 48°31' W 122°37'0 0.0
2018-Jun-14 11:30N 48°31' W 122°37'0 0.0
2018-Jun-14 10:58N 48°31' W 122°37'0 0.0
2018-Jun-14 10:30N 48°31' W 122°37'0 0.0
2018-Jun-14 10:00N 48°31' W 122°37'0 0.0
2018-Jun-14 09:30N 48°31' W 122°37'0 0.0
2018-Jun-14 09:00N 48°31' W 122°37'0 0.0
2018-Jun-14 08:30N 48°31' W 122°37'0 0.0
2018-Jun-14 08:00N 48°31' W 122°37'0 0.0
2018-Jun-14 07:30N 48°31' W 122°37'0 0.0
2018-Jun-14 07:00N 48°31' W 122°37'0 0.0
2018-Jun-14 06:30N 48°31' W 122°37'0 0.0
2018-Jun-14 06:00N 48°31' W 122°37'0 0.0
2018-Jun-14 05:29N 48°31' W 122°37'0 0.0
2018-Jun-14 05:00N 48°31' W 122°37'0 0.0
2018-Jun-14 04:29N 48°31' W 122°37'0 0.0
2018-Jun-14 04:00N 48°31' W 122°37'0 0.0
2018-Jun-14 03:30N 48°31' W 122°37'0 0.0
2018-Jun-14 03:00N 48°31' W 122°37'0 0.0
2018-Jun-14 02:28N 48°31' W 122°37'0 0.0
2018-Jun-14 02:00N 48°31' W 122°37'0 0.0
2018-Jun-14 01:30N 48°31' W 122°37'0 0.0
2018-Jun-14 01:00N 48°31' W 122°37'0 0.0
2018-Jun-14 00:30N 48°31' W 122°37'0 0.0
2018-Jun-14 00:00N 48°31' W 122°37'0 0.0
2018-Jun-13 23:30N 48°31' W 122°37'0 0.0
2018-Jun-13 23:00N 48°31' W 122°37'0 0.0
2018-Jun-13 22:30N 48°31' W 122°37'2 3.0
2018-Jun-13 22:00N 48°31' W 122°35'5 9.1
2018-Jun-13 21:30N 48°36' W 122°37'510.7
2018-Jun-13 21:00N 48°40' W 122°41'5 9.6
2018-Jun-13 20:29N 48°45' W 122°44'2 0.8
2018-Jun-13 17:49N 48°47' W 122°45'5 8.2
2018-Jun-13 17:09N 48°42' W 122°43'1 8.0
2018-Jun-13 17:00N 48°41' W 122°42'4 7.8
2018-Jun-13 16:30N 48°38' W 122°39'5 9.5
2018-Jun-13 16:00N 48°34' W 122°35'3 5.5
2018-Jun-13 15:30N 48°31' W 122°34'0 0.7
2018-Jun-13 15:00N 48°31' W 122°34'1 2.9
2018-Jun-13 14:30N 48°31' W 122°36'1 1.3
2018-Jun-13 14:00N 48°31' W 122°37'0 0.0
2018-Jun-13 13:30N 48°31' W 122°37'0 0.0
2018-Jun-13 13:00N 48°31' W 122°37'0 0.0
2018-Jun-13 12:30N 48°31' W 122°37'0 0.0
2018-Jun-13 12:00N 48°31' W 122°37'0 0.0
2018-Jun-13 11:30N 48°31' W 122°37'0 0.0
2018-Jun-13 11:00N 48°31' W 122°37'0 0.0
2018-Jun-13 10:28N 48°31' W 122°37'0 0.0
2018-Jun-13 10:00N 48°31' W 122°37'0 0.0
2018-Jun-13 09:30N 48°31' W 122°37'0 0.0
2018-Jun-13 09:00N 48°31' W 122°37'0 0.0
2018-Jun-13 08:30N 48°31' W 122°37'0 0.0
2018-Jun-13 08:00N 48°31' W 122°37'0 0.0
2018-Jun-13 07:30N 48°31' W 122°37'0 0.0
2018-Jun-13 07:00N 48°31' W 122°37'0 0.0
2018-Jun-13 06:30N 48°31' W 122°37'0 0.0
2018-Jun-13 06:00N 48°31' W 122°37'0 0.0
2018-Jun-13 05:30N 48°31' W 122°37'0 0.0
2018-Jun-13 05:00N 48°31' W 122°37'0 0.0
2018-Jun-13 04:30N 48°31' W 122°37'0 0.0
2018-Jun-13 04:00N 48°31' W 122°37'0 0.6
2018-Jun-13 03:30N 48°31' W 122°36'1 2.8
2018-Jun-13 03:00N 48°31' W 122°35'0 0.1
2018-Jun-13 02:30N 48°31' W 122°35'0 0.6
2018-Jun-13 02:00N 48°31' W 122°34'1 2.4
2018-Jun-13 01:30N 48°31' W 122°36'1 1.3
2018-Jun-13 01:00N 48°31' W 122°37'0 0.0
2018-Jun-13 00:28N 48°31' W 122°37'0 0.0
2018-Jun-13 00:00N 48°31' W 122°37'0 0.0
2018-Jun-12 23:28N 48°31' W 122°37'0 0.0
2018-Jun-12 23:00N 48°31' W 122°37'0 0.0
2018-Jun-12 22:26N 48°31' W 122°37'0 0.0
2018-Jun-12 22:00N 48°31' W 122°37'0 0.0
2018-Jun-12 21:30N 48°31' W 122°37'0 0.0
2018-Jun-12 21:00N 48°31' W 122°37'0 0.1
2018-Jun-12 20:29N 48°31' W 122°37'0 0.0
2018-Jun-12 20:00N 48°31' W 122°37'1 1.3
2018-Jun-12 19:30N 48°31' W 122°36'1 2.1
2018-Jun-12 19:00N 48°31' W 122°35'0 0.9
2018-Jun-12 18:30N 48°31' W 122°35'1 2.4
2018-Jun-12 18:00N 48°31' W 122°37'0 0.0
2018-Jun-12 17:30N 48°31' W 122°37'0 0.0
2018-Jun-12 17:00N 48°31' W 122°37'0 0.0
2018-Jun-12 16:30N 48°31' W 122°37'0 0.0
2018-Jun-12 16:00N 48°31' W 122°37'0 0.0
2018-Jun-12 15:30N 48°31' W 122°37'0 0.0
2018-Jun-12 15:00N 48°31' W 122°37'0 0.0
2018-Jun-12 14:28N 48°31' W 122°37'0 0.0
2018-Jun-12 13:59N 48°31' W 122°37'0 0.0
2018-Jun-12 13:30N 48°31' W 122°37'0 0.0
2018-Jun-12 13:00N 48°31' W 122°37'0 0.0
2018-Jun-12 12:30N 48°31' W 122°37'0 0.0
2018-Jun-12 12:00N 48°31' W 122°37'0 0.0
2018-Jun-12 11:30N 48°31' W 122°37'0 0.0
2018-Jun-12 11:00N 48°31' W 122°37'0 0.0
2018-Jun-12 10:30N 48°31' W 122°37'0 0.0
2018-Jun-12 10:00N 48°31' W 122°37'0 0.0
2018-Jun-12 09:30N 48°31' W 122°37'0 0.0
2018-Jun-12 09:00N 48°31' W 122°37'0 0.0
2018-Jun-12 08:30N 48°31' W 122°37'0 0.0
2018-Jun-12 08:00N 48°31' W 122°37'0 0.0
2018-Jun-12 07:30N 48°31' W 122°37'0 0.0
2018-Jun-12 07:00N 48°31' W 122°37'0 0.0
2018-Jun-12 06:30N 48°31' W 122°37'0 0.0
2018-Jun-12 06:00N 48°31' W 122°37'0 0.0
2018-Jun-12 05:30N 48°31' W 122°37'0 0.0
2018-Jun-12 04:57N 48°31' W 122°37'0 0.0
2018-Jun-12 04:30N 48°31' W 122°37'0 0.5
2018-Jun-12 04:00N 48°31' W 122°36'2 3.4
2018-Jun-12 03:30N 48°31' W 122°34'0 0.2
2018-Jun-12 03:00N 48°31' W 122°34'1 1.1
2018-Jun-12 02:30N 48°31' W 122°34'0 1.0
2018-Jun-12 02:00N 48°31' W 122°33'2 4.4
2018-Jun-12 01:30N 48°31' W 122°37'0 0.0
2018-Jun-12 01:00N 48°31' W 122°37'0 0.0
2018-Jun-12 00:30N 48°31' W 122°37'0 0.0
2018-Jun-12 00:00N 48°31' W 122°37'0 0.0
2018-Jun-11 23:30N 48°31' W 122°37'0 0.0
2018-Jun-11 23:00N 48°31' W 122°37'0 0.0
2018-Jun-11 22:30N 48°31' W 122°37'0 0.0
2018-Jun-11 22:00N 48°31' W 122°37'0 0.0
2018-Jun-11 21:30N 48°31' W 122°37'0 0.0
2018-Jun-11 21:00N 48°31' W 122°37'0 0.0
2018-Jun-11 20:30N 48°31' W 122°37'0 0.0
2018-Jun-11 20:00N 48°31' W 122°37'0 0.0
2018-Jun-11 19:30N 48°31' W 122°37'0 0.0
2018-Jun-11 18:58N 48°31' W 122°37'0 0.0
2018-Jun-11 18:30N 48°31' W 122°37'0 0.0
2018-Jun-11 18:00N 48°31' W 122°37'0 0.0
2018-Jun-11 17:30N 48°31' W 122°37'0 0.0
2018-Jun-11 17:00N 48°31' W 122°37'0 0.0
2018-Jun-11 16:30N 48°31' W 122°37'0 0.0
2018-Jun-11 16:00N 48°31' W 122°37'0 0.0
2018-Jun-11 15:30N 48°31' W 122°37'0 0.0
2018-Jun-11 15:00N 48°31' W 122°37'0 0.0
2018-Jun-11 14:30N 48°31' W 122°37'0 0.0
2018-Jun-11 14:00N 48°31' W 122°37'1 2.2
2018-Jun-11 13:30N 48°31' W 122°35'1 1.3
2018-Jun-11 13:00N 48°31' W 122°35'0 0.8
2018-Jun-11 12:30N 48°31' W 122°35'1 2.4
2018-Jun-11 12:00N 48°31' W 122°37'0 0.0
2018-Jun-11 11:30N 48°31' W 122°37'0 0.0
2018-Jun-11 11:00N 48°31' W 122°37'0 0.0
2018-Jun-11 10:30N 48°31' W 122°37'0 0.0
2018-Jun-11 10:00N 48°31' W 122°37'0 0.0
2018-Jun-11 09:30N 48°31' W 122°37'0 0.0
2018-Jun-11 09:00N 48°31' W 122°37'0 0.0
2018-Jun-11 08:30N 48°31' W 122°37'0 0.0
2018-Jun-11 08:00N 48°31' W 122°37'0 0.0
2018-Jun-11 07:30N 48°31' W 122°37'0 0.0
2018-Jun-11 07:00N 48°31' W 122°37'0 0.0
2018-Jun-11 06:30N 48°31' W 122°37'0 0.0
2018-Jun-11 06:00N 48°31' W 122°37'0 0.0
2018-Jun-11 05:30N 48°31' W 122°37'0 0.0
2018-Jun-11 05:00N 48°31' W 122°37'0 0.0
2018-Jun-11 04:30N 48°31' W 122°37'0 0.0
2018-Jun-11 04:00N 48°31' W 122°37'0 0.0
2018-Jun-11 03:30N 48°31' W 122°37'0 0.0
2018-Jun-11 03:00N 48°31' W 122°37'0 0.0
2018-Jun-11 02:30N 48°31' W 122°37'0 0.0
2018-Jun-11 01:59N 48°31' W 122°37'0 0.0
2018-Jun-11 01:30N 48°31' W 122°37'0 0.0
2018-Jun-11 01:00N 48°31' W 122°37'0 0.0
2018-Jun-11 00:30N 48°31' W 122°37'0 0.0
2018-Jun-11 00:00N 48°31' W 122°37'0 0.0
2018-Jun-10 23:30N 48°31' W 122°37'2 3.2
2018-Jun-10 23:00N 48°31' W 122°35'0 0.0
2018-Jun-10 22:30N 48°31' W 122°35'0 0.3
2018-Jun-10 22:00N 48°31' W 122°35'2 3.2
2018-Jun-10 21:30N 48°32' W 122°34'1 1.1
2018-Jun-10 20:58N 48°33' W 122°34'2 4.9
2018-Jun-10 20:30N 48°31' W 122°37'0 0.0
2018-Jun-10 19:59N 48°31' W 122°37'0 0.0
2018-Jun-10 19:30N 48°31' W 122°37'0 0.0
2018-Jun-10 19:00N 48°31' W 122°37'0 0.0
2018-Jun-10 18:30N 48°31' W 122°37'0 0.0
2018-Jun-10 18:00N 48°31' W 122°37'0 0.0
2018-Jun-10 17:29N 48°31' W 122°37'0 0.0
2018-Jun-10 17:00N 48°31' W 122°37'0 0.0
2018-Jun-10 16:30N 48°31' W 122°37'0 0.0
2018-Jun-10 16:00N 48°31' W 122°37'0 0.0
2018-Jun-10 15:30N 48°31' W 122°37'0 0.0
2018-Jun-10 15:00N 48°31' W 122°37'0 0.0
2018-Jun-10 14:30N 48°31' W 122°37'2 1.5
2018-Jun-10 13:30N 48°31' W 122°35'0 0.6
2018-Jun-10 13:00N 48°31' W 122°35'2 3.1
2018-Jun-10 12:30N 48°32' W 122°34'1 1.2
2018-Jun-10 12:00N 48°31' W 122°34'0 0.6
2018-Jun-10 11:30N 48°31' W 122°34'2 3.2
2018-Jun-10 11:00N 48°31' W 122°36'4 7.9
2018-Jun-10 10:30N 48°31' W 122°42'5 9.1
2018-Jun-10 09:59N 48°26' W 122°45'5 9.8
2018-Jun-10 09:30N 48°23' W 122°50'29 1.5
2018-Jun-09 14:45N 48°08' W 123°27'0 0.0
2018-Jun-09 14:28N 48°08' W 123°27'0 0.0
2018-Jun-09 14:00N 48°08' W 123°27'0 0.0
2018-Jun-09 13:30N 48°08' W 123°27'0 0.0
2018-Jun-09 13:00N 48°08' W 123°27'0 0.0
2018-Jun-09 12:28N 48°08' W 123°27'0 0.0
2018-Jun-09 12:00N 48°08' W 123°27'0 0.0
2018-Jun-09 11:30N 48°08' W 123°27'0 0.0
2018-Jun-09 11:00N 48°08' W 123°27'0 0.0
2018-Jun-09 10:30N 48°08' W 123°27'0 0.0
2018-Jun-09 10:00N 48°08' W 123°27'0 0.4
2018-Jun-09 09:30N 48°08' W 123°26'1 1.3
2018-Jun-09 09:01N 48°08' W 123°25'  

Dump ship's entire track history